Time;durP1;ratioP1;P1;durP2;ratioP2;P2;SDS_P1;SDS_P2;PMS_P1;PMS_P2;Temp;Humidity;BMP_temperature;BMP_pressure;BME280_temperature;BME280_humidity;BME280_pressure;Samples;Min_cycle;Max_cycle;Signal;HPM_P1;HPM_P2
2022/05/11 00:01:56;;;;;;;4.27;3.97;;;;;;;15.31;66.07;95177.25;5072209;28;20456;-78
2022/05/11 00:04:23;;;;;;;6.63;5.70;;;;;;;15.17;67.47;95159.28;5072211;28;20449;-77
2022/05/11 00:06:50;;;;;;;11.10;6.77;;;;;;;15.11;69.50;95157.25;5072061;28;20441;-77
2022/05/11 00:09:18;;;;;;;11.10;6.70;;;;;;;15.08;69.57;95160.19;5072250;28;20440;-77
2022/05/11 00:11:45;;;;;;;6.70;5.97;;;;;;;15.04;70.34;95172.88;5071867;28;20453;-77
2022/05/11 00:14:13;;;;;;;8.30;5.73;;;;;;;15.00;70.23;95168.03;5020462;28;20433;-77
2022/05/11 00:16:41;;;;;;;7.87;6.60;;;;;;;14.93;70.57;95172.25;5072298;28;20445;-77
2022/05/11 00:19:09;;;;;;;6.83;6.23;;;;;;;14.93;70.78;95167.81;5072178;28;20465;-77
2022/05/11 00:21:36;;;;;;;6.07;5.57;;;;;;;14.94;70.63;95177.38;5072120;28;20437;-77
2022/05/11 00:24:03;;;;;;;10.00;5.87;;;;;;;14.99;70.28;95171.66;5071807;28;20536;-77
2022/05/11 00:26:30;;;;;;;5.80;5.30;;;;;;;15.01;69.75;95164.41;5073563;28;20451;-78
2022/05/11 00:28:57;;;;;;;4.60;4.10;;;;;;;14.98;68.44;95164.69;5076203;28;20444;-77
2022/05/11 00:31:24;;;;;;;7.27;5.20;;;;;;;14.79;68.33;95168.31;5075974;28;20963;-77
2022/05/11 00:33:52;;;;;;;5.57;4.63;;;;;;;14.75;68.00;95170.44;5076017;28;20920;-77
2022/05/11 00:36:19;;;;;;;5.93;5.33;;;;;;;14.67;67.82;95167.69;5076578;28;20498;-77
2022/05/11 00:38:47;;;;;;;4.73;4.20;;;;;;;14.63;67.54;95166.31;5075913;28;20923;-78
2022/05/11 00:41:14;;;;;;;4.40;4.00;;;;;;;14.58;67.73;95158.03;5075832;28;20441;-78
2022/05/11 00:43:43;;;;;;;5.37;4.17;;;;;;;14.56;67.62;95149.41;5075885;28;20445;-78
2022/05/11 00:46:18;;;;;;;4.33;4.03;;;;;;;14.59;67.31;95148.28;5075744;28;20815;-78
2022/05/11 00:51:36;;;;;;;5.63;4.70;;;;;;;14.60;67.49;95150.78;5075853;28;20424;-77
2022/05/11 00:54:05;;;;;;;5.10;4.53;;;;;;;14.57;67.08;95148.44;5075536;28;20582;-77
2022/05/11 00:56:34;;;;;;;7.57;4.70;;;;;;;14.59;67.21;95154.41;5075768;28;20433;-77
2022/05/11 00:59:09;;;;;;;4.33;3.90;;;;;;;14.62;66.93;95159.38;5076193;28;20441;-77
2022/05/11 01:01:37;;;;;;;4.50;4.20;;;;;;;14.58;67.10;95155.38;5075531;28;20454;-77
2022/05/11 01:04:08;;;;;;;7.30;4.93;;;;;;;14.57;67.20;95167.75;5075284;28;20445;-77
2022/05/11 01:06:37;;;;;;;5.00;4.30;;;;;;;14.53;67.15;95161.09;5075613;28;20433;-77
2022/05/11 01:09:06;;;;;;;4.70;4.30;;;;;;;14.50;67.15;95166.69;5075324;28;20444;-77
2022/05/11 01:11:37;;;;;;;4.97;4.57;;;;;;;14.47;67.31;95161.69;5075532;28;20456;-77
2022/05/11 01:14:06;;;;;;;4.47;4.17;;;;;;;14.28;68.00;95172.31;5075047;28;21009;-77
2022/05/11 01:16:35;;;;;;;9.93;5.20;;;;;;;14.24;68.68;95169.13;5023250;28;20440;-77
2022/05/11 01:19:01;;;;;;;4.90;4.33;;;;;;;14.24;69.45;95169.13;5075304;28;20562;-77
2022/05/11 01:21:39;;;;;;;5.00;4.53;;;;;;;14.20;69.52;95177.50;5075223;28;20449;-77
2022/05/11 01:24:27;;;;;;;6.97;4.77;;;;;;;14.23;69.39;95172.75;5075807;28;20797;-77
2022/05/11 01:26:54;;;;;;;5.40;4.90;;;;;;;14.22;69.78;95165.81;5023382;28;20440;-77
2022/05/11 01:29:21;;;;;;;6.00;5.30;;;;;;;14.16;69.94;95157.63;5075141;28;20444;-77
2022/05/11 01:31:48;;;;;;;5.67;5.13;;;;;;;14.15;70.63;95159.44;5074816;28;20437;-76
2022/05/11 01:34:19;;;;;;;6.17;5.57;;;;;;;14.09;70.61;95160.00;5023002;28;20483;-78
2022/05/11 01:36:50;;;;;;;6.03;4.80;;;;;;;14.06;69.99;95160.31;5074896;28;20812;-77
2022/05/11 01:39:17;;;;;;;4.93;4.53;;;;;;;14.06;69.13;95152.38;5073688;28;20544;-76
2022/05/11 01:41:51;;;;;;;5.43;4.93;;;;;;;14.07;68.91;95167.25;5074813;28;20437;-77
2022/05/11 01:44:20;;;;;;;8.33;4.70;;;;;;;14.05;68.44;95155.19;5074641;28;20942;-76
2022/05/11 01:46:49;;;;;;;4.80;4.40;;;;;;;14.01;68.62;95156.44;5075332;28;20449;-77
2022/05/11 01:49:16;;;;;;;5.40;4.90;;;;;;;13.95;68.96;95161.31;5074447;28;20448;-77
2022/05/11 01:51:43;;;;;;;5.30;4.60;;;;;;;13.82;69.11;95144.97;5074662;28;20449;-77
2022/05/11 01:54:11;;;;;;;4.33;4.03;;;;;;;13.84;68.52;95148.28;5022500;28;20491;-77
2022/05/11 01:56:37;;;;;;;5.00;4.60;;;;;;;13.89;68.90;95164.53;5074192;28;20460;-77
2022/05/11 01:59:06;;;;;;;4.77;4.27;;;;;;;13.86;69.50;95163.97;5074569;28;20441;-76
2022/05/11 02:01:35;;;;;;;5.40;4.90;;;;;;;13.87;69.13;95160.38;5074437;28;20441;-77
2022/05/11 02:04:02;;;;;;;6.13;5.73;;;;;;;13.86;69.47;95162.16;5074445;28;20928;-78
2022/05/11 02:09:14;;;;;;;5.43;4.83;;;;;;;13.80;69.89;95156.63;5074436;28;20838;-78
2022/05/11 02:11:41;;;;;;;5.13;4.43;;;;;;;13.78;69.65;95156.78;5074253;28;20448;-77
2022/05/11 02:14:10;;;;;;;5.60;4.00;;;;;;;13.75;69.46;95148.34;5074264;28;20480;-76
2022/05/11 02:16:37;;;;;;;9.00;4.60;;;;;;;13.70;69.58;95156.69;5074300;28;20447;-76
2022/05/11 02:19:04;;;;;;;6.03;4.90;;;;;;;13.69;69.74;95162.94;5073924;28;21002;-77
2022/05/11 02:21:31;;;;;;;5.10;4.60;;;;;;;13.69;69.96;95162.94;5074047;28;20452;-77
2022/05/11 02:23:58;;;;;;;6.47;5.17;;;;;;;13.61;70.03;95166.28;5022162;28;20445;-77
2022/05/11 02:26:25;;;;;;;8.73;5.30;;;;;;;13.62;69.88;95164.47;5073844;28;20448;-77
2022/05/11 02:28:52;;;;;;;5.77;5.00;;;;;;;13.55;70.13;95158.91;5073761;28;20524;-77
2022/05/11 02:31:20;;;;;;;5.03;4.40;;;;;;;13.48;70.31;95162.25;5073653;28;20440;-77
2022/05/11 02:33:47;;;;;;;8.80;4.70;;;;;;;13.45;70.52;95158.09;5073819;28;20481;-77
2022/05/11 02:36:14;;;;;;;5.43;4.80;;;;;;;13.35;70.76;95148.56;5073638;28;20444;-76
2022/05/11 02:38:44;;;;;;;4.87;4.43;;;;;;;13.37;71.04;95157.97;5073844;28;20809;-75
2022/05/11 02:41:11;;;;;;;4.87;4.40;;;;;;;13.34;70.99;95163.53;4974218;28;20444;-77
2022/05/11 02:43:38;;;;;;;8.27;5.10;;;;;;;13.35;70.97;95157.28;5073474;28;21042;-77
2022/05/11 02:46:05;;;;;;;5.60;4.60;;;;;;;13.40;71.03;95165.59;5073621;28;20443;-77
2022/05/11 02:48:34;;;;;;;7.60;4.83;;;;;;;13.36;70.20;95164.22;5073623;28;20445;-77
2022/05/11 02:51:01;;;;;;;4.97;4.57;;;;;;;13.39;70.57;95169.22;5073437;28;20506;-77
2022/05/11 02:53:29;;;;;;;5.33;4.40;;;;;;;13.45;69.94;95167.81;5073483;28;20476;-77
2022/05/11 02:55:57;;;;;;;5.57;5.07;;;;;;;13.52;70.68;95166.28;5073366;28;20448;-77
2022/05/11 02:58:28;;;;;;;7.20;5.40;;;;;;;13.59;70.93;95165.59;5073133;28;20429;-77
2022/05/11 03:00:59;;;;;;;9.17;5.70;;;;;;;13.59;71.73;95173.50;5073775;28;20452;-77
2022/05/11 03:03:26;;;;;;;7.17;6.47;;;;;;;13.63;71.95;95182.78;5073122;28;20803;-78
2022/05/11 03:05:54;;;;;;;6.30;5.30;;;;;;;13.65;72.23;95177.38;5073040;28;20437;-76
2022/05/11 03:08:21;;;;;;;15.27;6.00;;;;;;;13.67;72.12;95172.78;5021372;28;20452;-77
2022/05/11 03:10:48;;;;;;;9.97;7.10;;;;;;;13.73;72.07;95177.47;5072832;28;21065;-75
2022/05/11 03:13:15;;;;;;;9.77;5.90;;;;;;;13.78;71.66;95185.78;5072994;28;20908;-78
2022/05/11 03:15:42;;;;;;;5.87;5.37;;;;;;;13.82;70.79;95179.25;5073113;28;20441;-76
2022/05/11 03:18:10;;;;;;;5.30;4.80;;;;;;;13.88;70.17;95189.25;5073146;28;20487;-77
2022/05/11 03:20:37;;;;;;;6.10;4.83;;;;;;;13.89;69.66;95193.56;5072602;28;20943;-77
2022/05/11 03:23:05;;;;;;;5.93;4.30;;;;;;;13.89;69.20;95195.38;5072803;28;20959;-77
2022/05/11 03:25:32;;;;;;;4.80;4.40;;;;;;;13.88;68.58;95191.06;5072421;28;20448;-77
2022/05/11 03:27:59;;;;;;;10.63;4.63;;;;;;;13.82;68.14;95181.91;5073168;28;20449;-77
2022/05/11 03:30:26;;;;;;;8.70;4.73;;;;;;;13.88;68.19;95185.78;5072466;28;20441;-77
2022/05/11 03:35:38;;;;;;;5.10;4.17;;;;;;;13.90;68.00;95186.47;5072566;28;20432;-77
2022/05/11 03:38:07;;;;;;;4.90;4.50;;;;;;;13.88;67.16;95191.06;5072457;28;20452;-77
2022/05/11 03:40:38;;;;;;;7.53;4.80;;;;;;;13.85;67.67;95186.88;5072912;28;20525;-79
2022/05/11 03:43:06;;;;;;;4.40;4.00;;;;;;;13.86;67.63;95183.28;5072539;28;20448;-76
2022/05/11 03:45:33;;;;;;;12.10;5.00;;;;;;;13.85;67.93;95186.06;5020787;28;20439;-80
2022/05/11 03:48:00;;;;;;;4.37;3.97;;;;;;;13.84;67.20;95189.66;5072341;28;20452;-77
2022/05/11 03:50:27;;;;;;;4.13;3.83;;;;;;;13.83;67.40;95188.00;5072111;28;20431;-77
2022/05/11 03:52:55;;;;;;;3.90;3.53;;;;;;;13.87;67.67;95194.66;5072049;28;20492;-78
2022/05/11 03:55:24;;;;;;;5.80;4.10;;;;;;;13.88;66.96;95186.63;5072353;28;20445;-77
2022/05/11 03:57:51;;;;;;;6.73;4.70;;;;;;;13.91;67.48;95196.06;5072322;28;20471;-77
2022/05/11 04:00:21;;;;;;;7.47;5.37;;;;;;;13.93;67.71;95197.56;5071906;28;20445;-77
2022/05/11 04:02:48;;;;;;;7.80;4.93;;;;;;;13.93;67.86;95202.03;5072517;28;20526;-76
2022/05/11 04:05:16;;;;;;;4.60;4.20;;;;;;;13.89;67.46;95204.13;5072528;28;20950;-77
2022/05/11 04:07:43;;;;;;;4.90;4.50;;;;;;;13.92;67.78;95205.63;5072346;28;20449;-76
2022/05/11 04:10:12;;;;;;;7.03;4.90;;;;;;;13.97;67.73;95203.41;5072348;28;20448;-77
2022/05/11 04:12:41;;;;;;;5.40;4.70;;;;;;;13.97;67.60;95206.03;5071976;28;20449;-77
2022/05/11 04:15:09;;;;;;;7.37;4.43;;;;;;;14.00;66.91;95205.75;5071996;28;20480;-78
2022/05/11 04:17:36;;;;;;;4.60;4.30;;;;;;;14.00;66.73;95212.84;5071869;28;20931;-77
2022/05/11 04:20:04;;;;;;;4.50;4.10;;;;;;;13.98;66.32;95223.53;5072122;28;20457;-77
2022/05/11 04:22:31;;;;;;;11.90;4.03;;;;;;;13.98;65.99;95217.41;5072267;28;21050;-76
2022/05/11 04:24:58;;;;;;;5.50;4.70;;;;;;;13.94;65.92;95222.16;5072178;28;20441;-77
2022/05/11 04:27:25;;;;;;;4.77;4.30;;;;;;;13.92;66.41;95229.38;5071988;28;20526;-78
2022/05/11 04:29:53;;;;;;;9.83;5.00;;;;;;;13.95;66.26;95239.66;5071907;28;20943;-77
2022/05/11 04:32:20;;;;;;;7.43;4.30;;;;;;;14.11;66.44;95239.03;5071942;28;20946;-78
2022/05/11 04:34:47;;;;;;;4.40;4.10;;;;;;;14.41;65.71;95238.81;5072153;28;20483;-77
2022/05/11 04:37:14;;;;;;;6.90;3.93;;;;;;;14.90;65.27;95243.91;5020404;28;20443;-78
2022/05/11 04:39:41;;;;;;;7.20;4.67;;;;;;;15.56;63.39;95244.41;5072005;28;20947;-77
2022/05/11 04:42:09;;;;;;;8.27;4.50;;;;;;;16.25;60.81;95246.31;5020386;28;20966;-77
2022/05/11 04:44:36;;;;;;;5.00;4.60;;;;;;;16.97;59.16;95246.84;5071930;28;20912;-78
2022/05/11 04:47:08;;;;;;;13.93;6.70;;;;;;;17.52;58.63;95251.63;5071814;28;20927;-78
2022/05/11 04:49:35;;;;;;;12.50;6.67;;;;;;;17.99;57.65;95251.06;5071890;28;20530;-77
2022/05/11 04:52:07;;;;;;;13.43;7.10;;;;;;;18.23;56.30;95262.50;5071563;28;20444;-77
2022/05/11 04:54:36;;;;;;;7.03;6.07;;;;;;;18.62;55.46;95252.94;5071520;28;20538;-77
2022/05/11 04:57:04;;;;;;;9.37;5.90;;;;;;;19.15;53.87;95247.78;5071696;28;20445;-77
2022/05/11 04:59:32;;;;;;;6.93;6.33;;;;;;;19.56;52.62;95244.91;5071588;28;20456;-77
2022/05/11 05:01:59;;;;;;;9.17;6.17;;;;;;;19.94;51.31;95248.47;5071570;28;20472;-77
2022/05/11 05:04:27;;;;;;;8.87;6.10;;;;;;;20.39;49.67;95258.22;5071991;28;20445;-78
2022/05/11 05:06:54;;;;;;;6.87;5.37;;;;;;;20.64;48.73;95258.03;5071690;28;20855;-76
2022/05/11 05:09:22;;;;;;;4.07;3.77;;;;;;;20.82;46.05;95257.69;5071806;28;20445;-78
2022/05/11 05:11:49;;;;;;;5.20;3.50;;;;;;;21.16;46.13;95257.94;5071377;28;20448;-77
2022/05/11 05:14:16;;;;;;;5.27;4.20;;;;;;;21.54;45.77;95250.59;5074207;28;20891;-77
2022/05/11 05:16:43;;;;;;;4.23;3.53;;;;;;;21.80;44.39;95255.41;5075029;28;20436;-77
2022/05/11 05:19:11;;;;;;;10.83;3.90;;;;;;;22.13;43.56;95252.25;5075380;28;20974;-78
2022/05/11 05:21:39;;;;;;;7.47;3.70;;;;;;;22.40;43.11;95250.63;5075307;28;20806;-77
2022/05/11 05:24:07;;;;;;;4.27;3.40;;;;;;;22.63;42.16;95253.88;5075217;28;20788;-77
2022/05/11 05:26:34;;;;;;;4.40;4.00;;;;;;;22.96;41.41;95248.75;5023190;28;20460;-77
2022/05/11 05:31:45;;;;;;;6.10;4.20;;;;;;;23.51;40.42;95256.84;5075091;28;20444;-78
2022/05/11 05:34:12;;;;;;;5.67;4.53;;;;;;;23.56;40.56;95251.72;5075250;28;20484;-79
2022/05/11 05:36:41;;;;;;;5.43;4.93;;;;;;;23.79;40.14;95254.91;5074828;28;20428;-77
2022/05/11 05:39:08;;;;;;;4.57;3.90;;;;;;;23.84;39.71;95259.63;5074938;28;20444;-77
2022/05/11 05:41:35;;;;;;;4.77;4.37;;;;;;;24.13;39.50;95258.44;5074872;28;20920;-77
2022/05/11 05:44:04;;;;;;;5.30;4.70;;;;;;;24.28;38.73;95262.59;5074955;28;20443;-76
2022/05/11 05:46:31;;;;;;;9.97;5.03;;;;;;;24.44;38.58;95269.44;5074623;28;20845;-78
2022/05/11 05:48:58;;;;;;;5.10;4.30;;;;;;;24.69;38.42;95277.69;5074493;28;20783;-78
2022/05/11 05:51:25;;;;;;;5.83;5.00;;;;;;;24.95;37.85;95276.81;5074857;28;20448;-77
2022/05/11 05:53:53;;;;;;;5.70;4.97;;;;;;;25.09;38.18;95273.09;5074612;28;20538;-77
2022/05/11 05:56:20;;;;;;;5.90;5.30;;;;;;;25.04;37.90;95275.59;5074710;28;20441;-79
2022/05/11 05:58:47;;;;;;;9.23;6.07;;;;;;;25.15;38.41;95280.31;5074356;28;20437;-77
2022/05/11 06:01:16;;;;;;;6.93;6.23;;;;;;;25.15;38.02;95283.00;5074282;28;20457;-78
2022/05/11 06:03:44;;;;;;;8.50;5.90;;;;;;;25.14;38.60;95285.88;5074116;28;20942;-78
2022/05/11 06:06:12;;;;;;;12.03;6.20;;;;;;;24.86;38.99;95281.56;5023034;28;20441;-77
2022/05/11 06:08:39;;;;;;;10.60;6.70;;;;;;;24.81;39.53;95288.59;5074439;28;20459;-78
2022/05/11 06:11:08;;;;;;;9.37;6.53;;;;;;;24.84;39.29;95282.81;5074275;28;20445;-77
2022/05/11 06:13:36;;;;;;;10.23;5.47;;;;;;;24.91;39.60;95283.66;5074217;28;20437;-78
2022/05/11 06:16:03;;;;;;;5.93;5.43;;;;;;;25.10;39.32;95285.50;5074193;28;20447;-77
2022/05/11 06:18:30;;;;;;;7.97;6.93;;;;;;;25.12;39.45;95279.91;5073702;28;20472;-78
2022/05/11 06:20:57;;;;;;;7.97;6.60;;;;;;;24.73;39.89;95291.50;5074199;28;20495;-77
2022/05/11 06:23:24;;;;;;;12.50;8.20;;;;;;;24.31;41.54;95286.38;5073675;28;20950;-77
2022/05/11 06:25:51;;;;;;;12.53;7.33;;;;;;;23.96;41.95;95293.69;5073805;28;20453;-76
2022/05/11 06:28:20;;;;;;;10.97;7.63;;;;;;;24.12;41.69;95295.16;5074010;28;20463;-77
2022/05/11 06:30:48;;;;;;;13.20;8.33;;;;;;;24.24;42.00;95290.00;5073792;28;20819;-78
2022/05/11 06:33:14;;;;;;;12.37;7.77;;;;;;;23.71;43.01;95288.06;5073784;28;20799;-78
2022/05/11 06:35:41;;;;;;;13.07;7.63;;;;;;;23.78;42.82;95290.75;5073791;28;20511;-78
2022/05/11 06:38:10;;;;;;;9.83;7.60;;;;;;;24.04;42.91;95295.38;5038445;28;20429;-78
2022/05/11 06:40:37;;;;;;;11.83;8.13;;;;;;;24.38;41.63;95297.91;5073458;28;20456;-78
2022/05/11 06:43:05;;;;;;;8.17;7.43;;;;;;;24.46;41.62;95291.50;5073689;28;20441;-79
2022/05/11 06:45:34;;;;;;;10.97;8.30;;;;;;;24.37;41.72;95290.06;5073468;28;20445;-78
2022/05/11 06:48:01;;;;;;;8.70;7.80;;;;;;;24.45;41.27;95292.56;5073830;28;20448;-76
2022/05/11 06:50:28;;;;;;;10.80;7.97;;;;;;;24.70;41.30;95292.75;5073769;28;20460;-77
2022/05/11 06:52:56;;;;;;;13.73;9.40;;;;;;;24.88;40.71;95284.06;5073574;28;20429;-77
2022/05/11 07:00:54;;;;;;;15.13;9.87;;;;;;;24.73;40.68;95288.81;5073111;28;20439;-77
2022/05/11 07:03:21;;;;;;;10.57;9.50;;;;;;;24.76;40.92;95291.91;5073137;28;20460;-77
2022/05/11 07:05:49;;;;;;;14.00;9.20;;;;;;;24.90;40.95;95290.88;5072058;28;20476;-78
2022/05/11 07:08:15;;;;;;;12.73;8.30;;;;;;;24.86;41.73;95280.75;5072996;28;20444;-78
2022/05/11 07:12:17;;;;;;;9.27;8.33;;;;;;;24.69;40.94;95289.25;5073176;28;21149;-76
2022/05/11 07:13:30;;;;;;;10.13;9.13;;;;;;;24.73;41.46;95283.47;5072726;28;20839;-77
2022/05/11 07:15:58;;;;;;;14.63;9.30;;;;;;;24.70;41.09;95274.78;5073079;28;20481;-78
2022/05/11 07:18:26;;;;;;;17.43;10.07;;;;;;;24.88;40.62;95287.59;5072860;28;20882;-78
2022/05/11 07:20:53;;;;;;;24.60;10.53;;;;;;;25.09;41.11;95280.31;5072808;28;20471;-78
2022/05/11 07:23:20;;;;;;;14.17;8.40;;;;;;;25.19;40.04;95283.44;5072744;28;20833;-77
2022/05/11 07:25:47;;;;;;;10.50;8.07;;;;;;;25.20;39.78;95274.34;5072860;28;20931;-78
2022/05/11 07:28:16;;;;;;;12.37;8.47;;;;;;;24.87;40.08;95269.00;5072708;28;20472;-78
2022/05/11 07:30:47;;;;;;;19.03;8.00;;;;;;;24.87;40.64;95266.31;5072461;28;20966;-77
2022/05/11 07:33:15;;;;;;;15.13;9.20;;;;;;;25.09;40.13;95265.03;5072696;28;20536;-77
2022/05/11 07:35:44;;;;;;;9.83;8.83;;;;;;;24.73;40.20;95272.72;5071928;28;20479;-78
2022/05/11 07:38:13;;;;;;;13.23;7.97;;;;;;;24.82;40.76;95256.19;5072450;28;20796;-78
2022/05/11 07:40:40;;;;;;;9.77;8.37;;;;;;;24.96;40.84;95262.38;5072914;28;20475;-77
2022/05/11 07:43:07;;;;;;;11.37;9.60;;;;;;;25.00;40.46;95256.41;5071408;28;20566;-78
2022/05/11 07:45:34;;;;;;;12.13;8.27;;;;;;;25.09;40.50;95256.97;5068680;28;20437;-78
2022/05/11 07:48:01;;;;;;;18.30;9.27;;;;;;;25.16;39.54;95260.50;5072538;28;20441;-79
2022/05/11 07:50:30;;;;;;;10.00;7.93;;;;;;;25.37;39.01;95258.56;5071933;28;20451;-79
2022/05/11 07:52:58;;;;;;;17.93;9.43;;;;;;;25.63;37.61;95250.38;5072239;28;20540;-79
2022/05/11 07:55:26;;;;;;;9.83;7.07;;;;;;;25.84;37.90;95254.66;5072356;28;20493;-78
2022/05/11 08:00:38;;;;;;;16.20;7.53;;;;;;;26.01;36.85;95244.19;5072546;28;20852;-79
2022/05/11 08:03:05;;;;;;;12.97;8.07;;;;;;;25.81;37.04;95245.16;5072220;28;20437;-79
2022/05/11 08:05:33;;;;;;;11.97;7.37;;;;;;;25.79;37.19;95241.84;5072466;28;20959;-79
2022/05/11 08:08:05;;;;;;;8.47;6.63;;;;;;;25.43;36.88;95234.34;5072360;28;20437;-77
2022/05/11 08:10:35;;;;;;;8.03;6.43;;;;;;;25.67;36.86;95243.56;5072244;28;21027;-77
2022/05/11 08:13:05;;;;;;;12.07;6.80;;;;;;;25.50;37.26;95237.00;5071991;28;20997;-79
2022/05/11 08:15:32;;;;;;;6.90;5.13;;;;;;;25.46;36.88;95242.00;5072300;28;20487;-79
2022/05/11 08:18:00;;;;;;;9.03;5.37;;;;;;;25.61;37.00;95242.53;5072312;28;20444;-75
2022/05/11 08:20:32;;;;;;;6.60;6.10;;;;;;;25.64;35.70;95231.34;5072506;28;20433;-77
2022/05/11 08:23:02;;;;;;;7.43;5.63;;;;;;;25.68;36.61;95230.94;5072712;28;20429;-77
2022/05/11 08:25:31;;;;;;;8.30;5.80;;;;;;;25.68;36.36;95233.63;5072071;28;20459;-77
2022/05/11 08:27:59;;;;;;;5.37;4.97;;;;;;;25.70;36.99;95232.38;5072295;28;20473;-77
2022/05/11 08:33:22;;;;;;;8.07;5.47;;;;;;;26.13;36.05;95224.47;5072264;28;20566;-78
2022/05/11 08:35:51;;;;;;;5.17;4.77;;;;;;;26.25;35.11;95233.47;5072124;28;20579;-77
2022/05/11 08:38:20;;;;;;;4.93;4.50;;;;;;;26.20;34.79;95227.09;5071851;28;20452;-77
2022/05/11 08:40:51;;;;;;;6.77;4.90;;;;;;;25.90;34.19;95227.72;5072112;28;20520;-77
2022/05/11 08:43:19;;;;;;;4.50;4.10;;;;;;;25.84;35.00;95223.22;5071841;28;20449;-77
2022/05/11 08:45:54;;;;;;;6.50;4.27;;;;;;;25.73;34.83;95218.50;5071755;28;20451;-77
2022/05/11 08:48:29;;;;;;;9.30;4.57;;;;;;;25.76;35.29;95220.78;5039386;28;20432;-78
2022/05/11 08:50:56;;;;;;;4.83;4.30;;;;;;;25.71;36.31;95222.44;5075893;28;21008;-77
2022/05/11 08:53:35;;;;;;;5.70;5.20;;;;;;;25.62;34.87;95221.84;5075884;28;20455;-78
2022/05/11 08:56:07;;;;;;;11.33;5.10;;;;;;;25.44;35.04;95232.47;5076042;28;20860;-77
2022/05/11 08:58:41;;;;;;;5.90;4.90;;;;;;;25.02;36.43;95218.59;5075776;28;20444;-77
2022/05/11 09:01:29;;;;;;;5.20;4.70;;;;;;;25.11;35.73;95224.53;5075990;28;20445;-77
2022/05/11 09:04:00;;;;;;;5.40;5.00;;;;;;;25.29;37.15;95222.84;5075764;28;20450;-76
2022/05/11 09:06:28;;;;;;;5.53;4.37;;;;;;;25.32;36.41;95218.91;5076015;28;20433;-77
2022/05/11 09:08:58;;;;;;;4.53;4.13;;;;;;;25.43;35.43;95214.69;5023601;28;20433;-78
2022/05/11 09:11:35;;;;;;;5.47;4.50;;;;;;;25.39;36.37;95222.38;5075751;28;20815;-78
2022/05/11 09:14:05;;;;;;;6.93;4.33;;;;;;;25.21;35.69;95209.66;5075506;28;20448;-77
2022/05/11 09:16:39;;;;;;;5.63;4.20;;;;;;;25.13;35.20;95214.41;5075440;28;20502;-77
2022/05/11 09:19:17;;;;;;;7.00;3.93;;;;;;;25.04;35.31;95211.16;5075489;28;20476;-78
2022/05/11 09:21:51;;;;;;;7.40;4.37;;;;;;;24.74;34.51;95223.38;5075160;28;20451;-77
2022/05/11 09:24:35;;;;;;;5.37;4.80;;;;;;;24.61;35.87;95221.56;5077309;28;20970;-78
2022/05/11 09:27:07;;;;;;;4.83;4.43;;;;;;;24.65;34.86;95228.16;5075594;28;20464;-78
2022/05/11 09:29:39;;;;;;;5.20;4.80;;;;;;;24.55;34.77;95215.13;5074984;28;20979;-78
2022/05/11 09:32:37;;;;;;;8.83;5.00;;;;;;;24.61;36.20;95216.19;5075166;28;20452;-79
2022/05/11 09:35:22;;;;;;;4.50;4.00;;;;;;;24.63;36.59;95217.63;5075071;28;20491;-78
2022/05/11 09:38:02;;;;;;;6.20;4.00;;;;;;;24.82;35.92;95212.41;5075129;28;20452;-77
2022/05/11 09:40:31;;;;;;;5.80;3.90;;;;;;;24.80;34.32;95225.22;5074905;28;20813;-78
2022/05/11 09:43:01;;;;;;;4.87;3.60;;;;;;;24.58;34.07;95216.59;5074806;28;20804;-77
2022/05/11 09:45:40;;;;;;;3.87;3.47;;;;;;;24.53;34.89;95224.44;5074895;28;20436;-78
2022/05/11 09:48:14;;;;;;;4.93;4.50;;;;;;;24.54;34.67;95216.16;5022894;28;20811;-78
2022/05/11 09:50:43;;;;;;;5.13;3.83;;;;;;;24.64;34.71;95215.75;5074646;28;20437;-78
2022/05/11 09:53:21;;;;;;;6.50;4.37;;;;;;;24.58;34.12;95208.56;5074732;28;20448;-78
2022/05/11 09:55:50;;;;;;;4.00;3.63;;;;;;;24.64;33.41;95211.22;5074250;28;20853;-78
2022/05/11 09:58:28;;;;;;;5.43;3.10;;;;;;;24.68;33.98;95198.19;5074101;28;20453;-78
2022/05/11 10:01:09;;;;;;;5.70;3.73;;;;;;;24.72;33.35;95204.78;5074400;28;20495;-78
2022/05/11 10:03:39;;;;;;;4.20;3.80;;;;;;;24.67;33.36;95200.06;5074613;28;20444;-78
2022/05/11 10:06:09;;;;;;;5.80;3.50;;;;;;;24.67;33.36;95191.19;5074793;28;20448;-78
2022/05/11 10:08:38;;;;;;;5.67;4.73;;;;;;;24.69;33.27;95181.88;5074692;28;20453;-77
2022/05/11 10:11:10;;;;;;;6.40;3.70;;;;;;;24.79;33.71;95192.19;5074446;28;20463;-78
2022/05/11 10:13:41;;;;;;;4.40;4.00;;;;;;;24.68;34.34;95188.28;5074369;28;20447;-78
2022/05/11 10:22:02;;;;;;;18.23;4.37;;;;;;;24.69;34.86;95173.84;5074077;28;20946;-78
2022/05/11 10:24:41;;;;;;;4.27;3.87;;;;;;;24.80;33.48;95179.59;5074356;28;20444;-78
2022/05/11 10:27:17;;;;;;;4.70;3.30;;;;;;;24.54;33.33;95169.72;5074482;28;20424;-79
2022/05/11 10:30:02;;;;;;;3.27;2.97;;;;;;;24.33;33.14;95170.81;5074064;28;20440;-78
2022/05/11 10:32:41;;;;;;;9.77;3.47;;;;;;;24.22;33.64;95166.03;5074224;28;20884;-78
2022/05/11 10:35:14;;;;;;;5.10;3.83;;;;;;;24.32;34.86;95161.94;5073635;28;20519;-78
2022/05/11 10:38:03;;;;;;;3.90;3.43;;;;;;;24.50;34.54;95168.50;5073935;28;20443;-79
2022/05/11 10:40:39;;;;;;;3.63;3.30;;;;;;;24.60;33.64;95171.59;5073971;28;20456;-78
2022/05/11 10:43:21;;;;;;;4.40;4.00;;;;;;;24.76;33.74;95175.66;5073543;28;20432;-78
2022/05/11 10:45:57;;;;;;;7.40;3.80;;;;;;;24.87;34.79;95162.44;5073509;28;20425;-79
2022/05/11 10:48:41;;;;;;;3.67;3.37;;;;;;;24.92;33.90;95167.16;5073629;28;20445;-79
2022/05/11 10:51:16;;;;;;;5.70;3.80;;;;;;;24.85;32.30;95169.03;5073509;28;20873;-79
2022/05/11 10:53:47;;;;;;;3.40;3.10;;;;;;;24.76;32.06;95164.94;5073537;28;20444;-78
2022/05/11 10:56:31;;;;;;;8.37;3.53;;;;;;;24.69;32.94;95171.16;5073262;28;20968;-79
2022/05/11 10:59:39;;;;;;;4.43;3.40;;;;;;;24.76;33.41;95168.44;5024934;28;20460;-79
2022/05/11 11:02:39;;;;;;;4.97;3.70;;;;;;;24.87;32.17;95166.97;5073645;28;20456;-78
2022/05/11 11:05:12;;;;;;;3.80;3.50;;;;;;;25.02;33.91;95165.69;5037805;28;20440;-79
2022/05/11 11:07:44;;;;;;;4.20;3.73;;;;;;;25.19;33.27;95165.25;5073294;28;20436;-78
2022/05/11 11:10:24;;;;;;;5.17;3.90;;;;;;;25.16;32.39;95158.44;5072198;28;20966;-78
2022/05/11 11:13:13;;;;;;;10.23;3.23;;;;;;;25.30;32.16;95156.50;5073265;28;20453;-77
2022/05/11 11:15:44;;;;;;;6.70;4.20;;;;;;;25.26;32.72;95157.97;5072953;28;20491;-78
2022/05/11 11:18:14;;;;;;;5.00;3.70;;;;;;;25.16;32.49;95158.44;5072977;28;20963;-79
2022/05/11 11:20:45;;;;;;;4.40;3.70;;;;;;;24.98;32.29;95159.13;5073064;28;20451;-79
2022/05/11 11:23:28;;;;;;;5.63;4.03;;;;;;;24.55;34.41;95168.69;5073140;28;20449;-79
2022/05/11 11:25:57;;;;;;;6.40;3.60;;;;;;;23.95;40.11;95171.38;5073015;28;20453;-77
2022/05/11 11:28:26;;;;;;;10.30;4.57;;;;;;;23.77;41.85;95169.34;5073228;28;20444;-78
2022/05/11 11:31:17;;;;;;;7.67;4.07;;;;;;;23.52;41.95;95178.94;5021248;28;20425;-78
2022/05/11 11:34:19;;;;;;;8.40;4.73;;;;;;;22.95;42.79;95180.19;5072663;28;20502;-77
2022/05/11 11:36:47;;;;;;;9.00;4.17;;;;;;;22.49;43.79;95171.88;5072528;28;20476;-77
2022/05/11 11:39:54;;;;;;;9.07;5.00;;;;;;;22.38;43.62;95183.13;5072750;28;20445;-77
2022/05/11 11:42:34;;;;;;;9.60;4.17;;;;;;;22.33;42.80;95186.41;5072562;28;20445;-79
2022/05/11 11:45:01;;;;;;;11.53;3.90;;;;;;;22.46;42.40;95185.66;5072705;28;20831;-77
2022/05/11 11:47:43;;;;;;;4.80;4.40;;;;;;;22.43;40.08;95180.69;5072602;28;20960;-80
2022/05/11 11:50:33;;;;;;;7.20;3.20;;;;;;;22.20;40.89;95189.78;5072359;28;20449;-79
2022/05/11 11:53:11;;;;;;;5.90;3.00;;;;;;;22.21;41.49;95185.25;5072473;28;20448;-78
2022/05/11 11:55:38;;;;;;;4.70;3.00;;;;;;;22.18;40.27;95183.81;5072309;28;20449;-78
2022/05/11 11:58:25;;;;;;;4.10;2.87;;;;;;;22.12;40.17;95181.91;5072424;28;20445;-79
2022/05/11 12:01:00;;;;;;;2.73;2.50;;;;;;;22.08;40.08;95187.84;5072689;28;20528;-77
2022/05/11 12:03:33;;;;;;;2.60;2.40;;;;;;;22.15;40.71;95186.88;5072495;28;20424;-78
2022/05/11 12:17:25;;;;;;;2.63;2.43;;;;;;;22.21;38.61;95180.75;5010437;28;20478;-78
2022/05/11 12:20:01;;;;;;;2.60;2.40;;;;;;;22.20;38.91;95178.25;5010269;28;20487;-78
2022/05/11 12:22:31;;;;;;;3.63;2.60;;;;;;;22.17;38.08;95170.63;5009975;28;20966;-78
2022/05/11 12:25:02;;;;;;;10.80;2.60;;;;;;;22.25;38.95;95173.97;5010381;28;20440;-78
2022/05/11 12:27:32;;;;;;;3.63;2.70;;;;;;;22.40;38.61;95162.38;5010531;28;20823;-78